createdAt,value
2023-03-06T00:01:29.896Z,78.77
2023-03-06T00:06:33.952Z,78.63
2023-03-06T00:11:37.636Z,79.06
2023-03-06T00:16:41.192Z,79.22
2023-03-06T00:21:44.328Z,79.24
2023-03-06T00:26:48.743Z,79.15
2023-03-06T00:31:52.416Z,79.22
2023-03-06T00:36:55.436Z,79.16
2023-03-06T00:41:58.042Z,79.06
2023-03-06T00:47:01.607Z,78.96
2023-03-06T00:52:05.225Z,79.25
2023-03-06T00:57:08.019Z,79.07
2023-03-06T01:02:11.133Z,79.06
2023-03-06T01:07:15.659Z,79.26
2023-03-06T01:12:18.929Z,79.16
2023-03-06T01:17:21.727Z,79.23
2023-03-06T01:22:25.476Z,79.43
2023-03-06T01:27:28.864Z,79.46
2023-03-06T01:32:33.240Z,79.41
2023-03-06T01:37:37.532Z,79.00
2023-03-06T01:42:41.737Z,79.06
2023-03-06T01:47:45.212Z,79.15
2023-03-06T01:52:57.688Z,79.02
2023-03-06T01:58:06.260Z,78.81
2023-03-06T02:03:10.767Z,78.77
2023-03-06T02:08:18.410Z,78.99
2023-03-06T02:13:21.513Z,78.52
2023-03-06T02:18:25.657Z,78.59
2023-03-06T02:23:39.144Z,78.41
2023-03-06T02:28:41.573Z,78.32
2023-03-06T02:33:43.891Z,78.29
2023-03-06T02:38:49.995Z,78.19
2023-03-06T02:43:53.303Z,78.16
2023-03-06T02:48:57.738Z,77.81
2023-03-06T02:54:00.135Z,78.15
2023-03-06T02:59:02.561Z,78.49
2023-03-06T03:04:05.891Z,78.17
2023-03-06T03:09:10.123Z,78.27
2023-03-06T03:14:12.934Z,78.45
2023-03-06T03:19:15.731Z,78.32
2023-03-06T03:24:19.281Z,78.34
2023-03-06T03:29:21.628Z,78.40
2023-03-06T03:34:23.743Z,78.43
2023-03-06T03:39:25.785Z,78.51
2023-03-06T03:44:27.602Z,78.57
2023-03-06T03:49:29.375Z,78.95
2023-03-06T03:54:31.124Z,79.42
2023-03-06T03:59:36.311Z,79.75
2023-03-06T04:04:39.771Z,80.05
2023-03-06T04:09:43.394Z,81.02
2023-03-06T04:14:46.567Z,81.90
2023-03-06T04:19:50.020Z,82.48
2023-03-06T04:24:53.196Z,82.88
2023-03-06T04:29:56.566Z,83.17
2023-03-06T04:35:00.539Z,83.10
2023-03-06T04:40:04.550Z,83.56
2023-03-06T04:45:08.492Z,83.82
2023-03-06T04:50:11.943Z,83.60
2023-03-06T04:55:17.705Z,83.66
2023-03-06T05:00:23.853Z,83.81
2023-03-06T05:05:28.246Z,83.99
2023-03-06T05:10:30.970Z,84.15
2023-03-06T05:15:33.641Z,84.04
2023-03-06T05:20:37.364Z,84.09
2023-03-06T05:25:41.136Z,84.04
2023-03-06T05:30:45.027Z,83.95
2023-03-06T05:35:49.073Z,83.94
2023-03-06T05:40:51.519Z,84.25
2023-03-06T05:46:05.503Z,84.18
2023-03-06T05:51:07.681Z,84.13
2023-03-06T05:56:10.377Z,84.15
2023-03-06T06:01:17.164Z,84.24
2023-03-06T06:06:20.441Z,84.40
2023-03-06T06:11:24.559Z,84.48
2023-03-06T06:16:27.876Z,84.26
2023-03-06T06:21:31.655Z,84.44
2023-03-06T06:26:35.826Z,84.60
2023-03-06T06:31:39.679Z,84.65
2023-03-06T06:36:43.257Z,84.53
2023-03-06T06:41:59.778Z,84.64
2023-03-06T06:47:26.102Z,84.48
2023-03-06T06:52:29.847Z,84.60
2023-03-06T06:57:33.852Z,84.54
2023-03-06T07:02:36.794Z,84.24
2023-03-06T07:07:41.307Z,84.02
2023-03-06T07:12:44.704Z,83.84
2023-03-06T07:17:50.189Z,83.65
2023-03-06T07:22:54.681Z,83.89
2023-03-06T07:27:58.534Z,83.68
2023-03-06T07:33:01.922Z,83.26
2023-03-06T07:38:04.602Z,83.30
2023-03-06T07:43:18.754Z,82.92
2023-03-06T07:48:23.558Z,83.27
2023-03-06T07:53:27.825Z,83.15
2023-03-06T07:58:32.821Z,83.06
2023-03-06T08:03:37.077Z,82.64
2023-03-06T08:08:41.724Z,82.32
2023-03-06T08:13:45.892Z,82.19
2023-03-06T08:18:49.587Z,82.31
2023-03-06T08:23:53.035Z,82.53
2023-03-06T08:28:59.798Z,82.54
2023-03-06T08:34:05.549Z,81.92
2023-03-06T08:39:09.120Z,82.01
2023-03-06T08:44:13.360Z,81.99
2023-03-06T08:49:16.651Z,81.94
2023-03-06T08:54:20.378Z,81.79
2023-03-06T08:59:24.784Z,81.65
2023-03-06T09:04:31.206Z,81.75
2023-03-06T09:09:33.391Z,81.64
2023-03-06T09:14:36.156Z,81.87
2023-03-06T09:19:39.458Z,81.93
2023-03-06T09:24:42.612Z,81.67
2023-03-06T09:29:45.871Z,81.20
2023-03-06T09:34:49.273Z,81.64
2023-03-06T09:39:51.805Z,81.48
2023-03-06T09:44:59.501Z,81.36
2023-03-06T09:50:14.386Z,81.40
2023-03-06T09:55:21.680Z,81.63
2023-03-06T10:00:38.532Z,81.95
2023-03-06T10:06:09.724Z,81.55
2023-03-06T10:11:17.540Z,81.89
2023-03-06T10:16:24.496Z,81.63
2023-03-06T10:21:34.262Z,81.75
2023-03-06T10:27:10.855Z,81.71
2023-03-06T10:32:49.314Z,81.14
2023-03-06T10:38:01.849Z,81.69
2023-03-06T10:43:14.077Z,81.26
2023-03-06T10:48:22.891Z,80.90
2023-03-06T10:53:30.039Z,80.90
2023-03-06T10:58:32.938Z,80.61
2023-03-06T11:03:37.052Z,80.41
2023-03-06T11:08:42.789Z,79.90
2023-03-06T11:13:57.041Z,79.47
2023-03-06T11:19:04.412Z,78.65
2023-03-06T11:24:19.518Z,78.20
2023-03-06T11:29:43.530Z,77.73
2023-03-06T11:35:12.907Z,77.61
2023-03-06T11:40:31.587Z,77.84
2023-03-06T11:45:44.167Z,77.92
2023-03-06T11:50:53.474Z,77.75
2023-03-06T11:56:23.282Z,77.96
2023-03-06T12:01:45.112Z,78.10
2023-03-06T12:06:55.148Z,78.11
2023-03-06T12:12:03.787Z,78.11
2023-03-06T12:17:27.378Z,78.40
2023-03-06T12:22:57.611Z,77.84
2023-03-06T12:28:19.895Z,77.07
2023-03-06T12:33:34.270Z,76.42
2023-03-06T12:38:58.031Z,76.74
2023-03-06T12:44:06.354Z,76.24
2023-03-06T12:49:31.918Z,76.33
2023-03-06T12:54:40.133Z,76.30
2023-03-06T12:59:47.388Z,75.91
2023-03-06T13:05:08.961Z,75.63
2023-03-06T13:10:25.833Z,75.86
2023-03-06T13:15:45.309Z,76.00
2023-03-06T13:20:55.452Z,76.11
2023-03-06T13:26:08.234Z,75.54
2023-03-06T13:31:27.689Z,75.76
2023-03-06T13:36:39.839Z,75.53
2023-03-06T13:42:00.593Z,75.78
2023-03-06T13:47:20.955Z,75.71
2023-03-06T13:53:11.715Z,75.76
2023-03-06T13:58:37.403Z,76.00
2023-03-06T14:03:48.863Z,76.11
2023-03-06T14:08:52.985Z,76.56
2023-03-06T14:13:59.198Z,76.71
2023-03-06T14:19:03.329Z,76.94
2023-03-06T14:24:07.226Z,76.91
2023-03-06T14:29:25.901Z,77.13
2023-03-06T14:34:33.258Z,77.34
2023-03-06T14:39:42.687Z,77.33
2023-03-06T14:44:47.535Z,77.72
2023-03-06T14:50:26.999Z,77.97
2023-03-06T14:55:32.486Z,77.99
2023-03-06T15:00:41.358Z,78.29
2023-03-06T15:05:47.996Z,78.52
2023-03-06T15:11:02.762Z,78.49
2023-03-06T15:16:28.998Z,78.32
2023-03-06T15:21:38.999Z,78.46
2023-03-06T15:26:40.997Z,78.73
2023-03-06T15:31:48.335Z,78.74
2023-03-06T15:36:56.476Z,79.02
2023-03-06T15:42:00.085Z,78.75
2023-03-06T15:47:08.863Z,78.89
2023-03-06T15:52:13.663Z,79.15
2023-03-06T15:57:24.458Z,79.33
2023-03-06T16:02:30.352Z,79.56
2023-03-06T16:07:35.524Z,79.69
2023-03-06T16:12:47.440Z,79.86
2023-03-06T16:17:57.961Z,79.96
2023-03-06T16:23:01.375Z,79.97
2023-03-06T16:28:11.741Z,80.04
2023-03-06T16:33:18.438Z,79.99
2023-03-06T16:38:27.884Z,80.00
2023-03-06T16:43:40.784Z,80.25
2023-03-06T16:48:49.180Z,80.53
2023-03-06T16:53:55.795Z,80.36
2023-03-06T16:58:59.566Z,80.34
2023-03-06T17:04:03.545Z,80.84
2023-03-06T17:09:07.655Z,80.91
2023-03-06T17:14:12.070Z,80.95
2023-03-06T17:19:15.304Z,80.83
2023-03-06T17:24:20.222Z,81.36
2023-03-06T17:29:23.624Z,81.35
2023-03-06T17:34:27.870Z,81.60
2023-03-06T17:39:39.401Z,81.12
2023-03-06T17:44:42.213Z,81.44
2023-03-06T17:49:46.635Z,81.27
2023-03-06T17:54:50.418Z,81.52
2023-03-06T17:59:53.826Z,81.63
2023-03-06T18:04:57.803Z,81.61
2023-03-06T18:10:02.157Z,81.90
2023-03-06T18:15:05.805Z,82.22
2023-03-06T18:20:10.183Z,81.85
2023-03-06T18:25:13.995Z,81.92
2023-03-06T18:30:18.324Z,81.90
2023-03-06T18:35:21.598Z,82.26
2023-03-06T18:40:25.748Z,81.77
2023-03-06T18:45:28.608Z,82.07
2023-03-06T18:50:32.120Z,81.89
2023-03-06T18:55:34.903Z,81.91
2023-03-06T19:00:38.915Z,82.19
2023-03-06T19:05:43.800Z,82.10
2023-03-06T19:10:54.690Z,82.06
2023-03-06T19:15:58.806Z,81.88
2023-03-06T19:21:13.254Z,81.97
2023-03-06T19:26:18.742Z,82.01
2023-03-06T19:31:25.375Z,81.55
2023-03-06T19:36:34.152Z,81.85
2023-03-06T19:41:38.128Z,81.79
2023-03-06T19:46:41.673Z,81.87
2023-03-06T19:51:45.724Z,81.74
2023-03-06T19:56:49.959Z,81.79
2023-03-06T20:01:58.052Z,82.05
2023-03-06T20:07:02.040Z,81.94
2023-03-06T20:12:09.599Z,82.28
2023-03-06T20:17:12.416Z,82.09
2023-03-06T20:22:15.617Z,82.22
2023-03-06T20:27:19.175Z,82.26
2023-03-06T20:32:22.752Z,82.16
2023-03-06T20:37:42.763Z,82.05
2023-03-06T20:42:46.732Z,82.53
2023-03-06T20:47:50.336Z,82.36
2023-03-06T20:52:54.636Z,82.41
2023-03-06T20:58:00.837Z,82.61
2023-03-06T21:03:04.139Z,81.98
2023-03-06T21:08:08.004Z,82.28
2023-03-06T21:13:11.876Z,82.14
2023-03-06T21:18:15.961Z,81.88
2023-03-06T21:23:19.292Z,82.02
2023-03-06T21:28:22.321Z,82.13
2023-03-06T21:33:26.378Z,82.26
2023-03-06T21:38:29.590Z,82.32
2023-03-06T21:43:31.832Z,82.28
2023-03-06T21:48:36.127Z,82.30
2023-03-06T21:53:43.284Z,82.30
2023-03-06T21:58:46.850Z,82.05
2023-03-06T22:03:50.601Z,82.26
2023-03-06T22:08:55.763Z,82.31
2023-03-06T22:14:00.306Z,82.12
2023-03-06T22:19:04.000Z,82.72
2023-03-06T22:24:08.872Z,82.54
2023-03-06T22:29:11.197Z,82.66
2023-03-06T22:34:14.609Z,82.43
2023-03-06T22:39:19.378Z,82.44
2023-03-06T22:44:22.628Z,82.89
2023-03-06T22:49:25.871Z,82.53
2023-03-06T22:54:29.675Z,82.30
2023-03-06T22:59:32.864Z,82.48
2023-03-06T23:04:36.654Z,82.40
2023-03-06T23:09:40.053Z,82.63
2023-03-06T23:14:49.966Z,82.45
2023-03-06T23:19:54.287Z,82.12
2023-03-06T23:24:56.289Z,82.13
2023-03-06T23:29:59.371Z,81.97
2023-03-06T23:35:01.852Z,82.26
2023-03-06T23:40:07.968Z,82.15
2023-03-06T23:45:11.435Z,82.28
2023-03-06T23:50:15.804Z,81.98
2023-03-06T23:55:18.124Z,81.94
